createdAt,value
2022-08-18T00:02:17.060Z,99861.93
2022-08-18T00:04:49.001Z,99867.13
2022-08-18T00:07:24.035Z,99872.63
2022-08-18T00:09:52.386Z,99873.25
2022-08-18T00:12:27.525Z,99877.18
2022-08-18T00:14:56.918Z,99876.44
2022-08-18T00:17:24.721Z,99881.45
2022-08-18T00:19:52.320Z,99884.63
2022-08-18T00:22:21.534Z,99887.05
2022-08-18T00:24:54.312Z,99891.64
2022-08-18T00:27:28.351Z,99889.04
2022-08-18T00:30:00.501Z,99896.92
2022-08-18T00:32:35.888Z,99901.09
2022-08-18T00:35:13.562Z,99893.27
2022-08-18T00:37:42.245Z,99893.41
2022-08-18T00:40:13.513Z,99892.25
2022-08-18T00:42:47.912Z,99887.98
2022-08-18T00:45:20.981Z,99889.59
2022-08-18T00:47:48.610Z,99891.40
2022-08-18T00:50:22.376Z,99895.11
2022-08-18T00:52:56.809Z,99894.73
2022-08-18T00:55:26.325Z,99890.20
2022-08-18T00:58:01.742Z,99889.39
2022-08-18T01:00:29.819Z,99890.80
2022-08-18T01:03:02.813Z,99891.55
2022-08-18T01:05:40.773Z,99891.71
2022-08-18T01:08:14.211Z,99889.36
2022-08-18T01:10:42.158Z,99892.70
2022-08-18T01:13:10.379Z,99893.46
2022-08-18T01:15:38.614Z,99894.06
2022-08-18T01:18:29.004Z,99890.29
2022-08-18T01:21:30.903Z,99890.89
2022-08-18T01:24:02.428Z,99890.83
2022-08-18T01:26:34.783Z,99891.88
2022-08-18T01:29:11.570Z,99893.39
2022-08-18T01:31:54.609Z,99889.84
2022-08-18T01:34:24.830Z,99890.10
2022-08-18T01:36:54.923Z,99887.77
2022-08-18T01:40:59.982Z,99888.26
2022-08-18T01:42:13.148Z,99886.09
2022-08-18T01:44:41.676Z,99887.02
2022-08-18T01:47:11.446Z,99888.38
2022-08-18T01:49:43.119Z,99884.66
2022-08-18T01:52:15.869Z,99888.63
2022-08-18T01:54:43.506Z,99887.86
2022-08-18T01:57:13.334Z,99882.77
2022-08-18T01:59:42.642Z,99883.43
2022-08-18T02:02:18.333Z,99878.36
2022-08-18T02:04:47.492Z,99875.95
2022-08-18T02:07:15.317Z,99874.78
2022-08-18T02:09:43.987Z,99874.73
2022-08-18T02:12:14.258Z,99876.44
2022-08-18T02:14:42.045Z,99877.02
2022-08-18T02:17:12.386Z,99880.23
2022-08-18T02:19:44.217Z,99875.23
2022-08-18T02:22:19.386Z,99877.48
2022-08-18T02:24:47.736Z,99871.90
2022-08-18T02:27:16.289Z,99868.80
2022-08-18T02:29:44.398Z,99865.02
2022-08-18T02:32:12.028Z,99863.90
2022-08-18T02:34:41.691Z,99866.17
2022-08-18T02:37:14.836Z,99865.94
2022-08-18T02:39:43.237Z,99866.21
2022-08-18T02:42:11.099Z,99866.00
2022-08-18T02:44:38.736Z,99861.77
2022-08-18T02:47:06.750Z,99860.86
2022-08-18T02:49:36.745Z,99860.41
2022-08-18T02:52:04.666Z,99859.48
2022-08-18T02:54:32.478Z,99861.34
2022-08-18T02:57:00.080Z,99861.40
2022-08-18T02:59:27.947Z,99860.95
2022-08-18T03:01:59.500Z,99861.09
2022-08-18T03:04:30.274Z,99860.86
2022-08-18T03:07:02.113Z,99861.48
2022-08-18T03:09:31.473Z,99859.29
2022-08-18T03:11:59.758Z,99859.69
2022-08-18T03:14:28.851Z,99865.59
2022-08-18T03:16:57.199Z,99864.56
2022-08-18T03:19:29.549Z,99866.36
2022-08-18T03:22:02.854Z,99867.31
2022-08-18T03:24:32.814Z,99870.84
2022-08-18T03:27:06.110Z,99881.89
2022-08-18T03:29:35.508Z,99883.80
2022-08-18T03:32:05.229Z,99888.86
2022-08-18T03:34:33.702Z,99888.27
2022-08-18T03:37:01.426Z,99889.14
2022-08-18T03:39:29.836Z,99894.67
2022-08-18T03:42:01.176Z,99887.72
2022-08-18T03:44:32.574Z,99892.70
2022-08-18T03:47:04.493Z,99893.86
2022-08-18T03:49:33.893Z,99897.70
2022-08-18T03:52:02.445Z,99898.96
2022-08-18T03:54:34.193Z,99900.65
2022-08-18T03:57:01.828Z,99903.03
2022-08-18T03:59:31.640Z,99903.38
2022-08-18T04:02:02.001Z,99906.58
2022-08-18T04:04:30.447Z,99907.61
2022-08-18T04:07:06.205Z,99902.95
2022-08-18T04:09:35.731Z,99903.52
2022-08-18T04:12:16.310Z,99904.11
2022-08-18T04:14:49.065Z,99910.25
2022-08-18T04:17:23.319Z,99910.46
2022-08-18T04:19:55.727Z,99912.53
2022-08-18T04:22:25.045Z,99905.20
2022-08-18T04:24:53.424Z,99907.83
2022-08-18T04:27:22.090Z,99907.69
2022-08-18T04:29:49.932Z,99910.05
2022-08-18T04:32:19.400Z,99910.96
2022-08-18T04:34:46.989Z,99910.55
2022-08-18T04:37:15.458Z,99912.02
2022-08-18T04:39:44.158Z,99913.58
2022-08-18T04:42:12.066Z,99916.30
2022-08-18T04:44:39.899Z,99919.08
2022-08-18T04:47:13.042Z,99917.80
2022-08-18T04:49:40.720Z,99918.52
2022-08-18T04:52:40.320Z,99923.06
2022-08-18T04:55:10.896Z,99920.19
2022-08-18T04:57:39.088Z,99921.63
2022-08-18T05:00:09.807Z,99922.23
2022-08-18T05:02:37.513Z,99921.48
2022-08-18T05:05:06.338Z,99923.27
2022-08-18T05:07:33.959Z,99923.98
2022-08-18T05:10:01.790Z,99915.78
2022-08-18T05:12:29.510Z,99916.27
2022-08-18T05:14:58.074Z,99909.65
2022-08-18T05:17:30.066Z,99914.73
2022-08-18T05:20:03.964Z,99912.73
2022-08-18T05:22:38.075Z,99915.91
2022-08-18T05:25:08.138Z,99922.98
2022-08-18T05:27:38.021Z,99922.42
2022-08-18T05:30:08.409Z,99928.43
2022-08-18T05:32:47.859Z,99924.39
2022-08-18T05:35:23.209Z,99922.78
2022-08-18T05:38:15.608Z,99925.61
2022-08-18T05:40:45.989Z,99929.32
2022-08-18T05:43:15.391Z,99932.55
2022-08-18T05:45:43.983Z,99933.93
2022-08-18T05:48:11.623Z,99936.11
2022-08-18T05:50:39.236Z,99943.38
2022-08-18T05:53:14.854Z,99944.52
2022-08-18T05:56:21.220Z,99939.26
2022-08-18T05:58:55.737Z,99941.65
2022-08-18T06:01:32.789Z,99937.75
2022-08-18T06:04:20.388Z,99937.34
2022-08-18T06:06:49.557Z,99932.13
2022-08-18T06:09:26.034Z,99935.91
2022-08-18T06:12:05.093Z,99935.39
2022-08-18T06:14:32.774Z,99937.48
2022-08-18T06:17:28.041Z,99936.00
2022-08-18T06:20:14.748Z,99935.60
2022-08-18T06:23:05.551Z,99940.08
2022-08-18T06:26:05.125Z,99937.68
2022-08-18T06:28:52.502Z,99940.42
2022-08-18T06:31:29.873Z,99937.42
2022-08-18T06:34:24.888Z,99934.65
2022-08-18T06:36:58.564Z,99936.88
2022-08-18T06:39:34.971Z,99939.20
2022-08-18T06:42:05.663Z,99944.76
2022-08-18T06:44:38.920Z,99947.30
2022-08-18T06:47:26.242Z,99945.48
2022-08-18T06:50:05.257Z,99942.56
2022-08-18T06:52:36.898Z,99941.02
2022-08-18T06:55:11.431Z,99942.38
2022-08-18T06:57:53.184Z,99945.61
2022-08-18T07:00:32.718Z,99949.09
2022-08-18T07:03:16.577Z,99949.44
2022-08-18T07:06:05.897Z,99950.89
2022-08-18T07:08:37.842Z,99954.24
2022-08-18T07:11:25.238Z,99959.04
2022-08-18T07:14:14.963Z,99960.72
2022-08-18T07:17:00.064Z,99960.80
2022-08-18T07:19:30.544Z,99960.23
2022-08-18T07:22:04.328Z,99954.70
2022-08-18T07:24:38.579Z,99956.12
2022-08-18T07:27:18.002Z,99959.73
2022-08-18T07:30:05.786Z,99959.04
2022-08-18T07:32:41.076Z,99956.70
2022-08-18T07:35:10.275Z,99958.24
2022-08-18T07:38:09.692Z,99959.14
2022-08-18T07:41:13.697Z,99957.41
2022-08-18T07:43:57.273Z,99958.31
2022-08-18T07:47:01.159Z,99962.54
2022-08-18T07:49:33.315Z,99961.77
2022-08-18T07:52:36.448Z,99965.14
2022-08-18T07:55:12.431Z,99969.00
2022-08-18T07:58:11.968Z,99964.41
2022-08-18T08:01:05.495Z,99962.25
2022-08-18T08:03:50.214Z,99961.49
2022-08-18T08:06:27.505Z,99962.02
2022-08-18T08:09:15.429Z,99963.16
2022-08-18T08:12:15.015Z,99966.59
2022-08-18T08:14:45.869Z,99965.11
2022-08-18T08:17:25.029Z,99962.05
2022-08-18T08:20:08.699Z,99966.79
2022-08-18T08:22:52.282Z,99966.42
2022-08-18T08:28:20.383Z,99972.58
2022-08-18T08:31:37.827Z,99974.77
2022-08-18T08:56:47.627Z,99969.10
2022-08-18T08:59:22.015Z,99966.08
2022-08-18T09:02:05.992Z,99962.00
2022-08-18T09:05:19.986Z,99957.64
2022-08-18T09:07:56.693Z,99956.70
2022-08-18T09:10:52.039Z,99953.55
2022-08-18T09:13:53.597Z,99958.61
2022-08-18T09:16:41.242Z,99957.92
2022-08-18T09:19:17.818Z,99961.59
2022-08-18T09:22:01.542Z,99958.57
2022-08-18T09:24:40.437Z,99949.35
2022-08-18T09:27:27.050Z,99948.45
2022-08-18T09:29:57.601Z,99947.99
2022-08-18T09:32:25.936Z,99950.30
2022-08-18T09:35:26.106Z,99949.07
2022-08-18T09:38:15.584Z,99942.80
2022-08-18T09:41:16.403Z,99944.45
2022-08-18T09:44:18.079Z,99948.02
2022-08-18T09:46:57.370Z,99950.35
2022-08-18T09:49:26.479Z,99948.97
2022-08-18T09:52:02.154Z,99946.30
2022-08-18T09:54:33.095Z,99948.98
2022-08-18T09:57:03.730Z,99948.94
2022-08-18T09:59:32.667Z,99953.41
2022-08-18T10:02:20.143Z,99954.17
2022-08-18T10:05:17.798Z,99953.75
2022-08-18T10:08:21.217Z,99954.23
2022-08-18T10:11:08.582Z,99954.15
2022-08-18T10:14:03.240Z,99956.59
2022-08-18T10:19:39.841Z,99953.52
2022-08-18T10:22:09.482Z,99960.50
2022-08-18T10:24:54.013Z,99958.64
2022-08-18T10:27:46.570Z,99956.80
2022-08-18T10:30:56.370Z,99956.44
2022-08-18T10:33:53.437Z,99959.45
2022-08-18T10:36:50.505Z,99959.23
2022-08-18T10:39:42.930Z,99956.07
2022-08-18T10:42:19.814Z,99954.59
2022-08-18T10:44:50.374Z,99954.55
2022-08-18T10:47:33.509Z,99958.07
2022-08-18T10:50:18.322Z,99956.05
2022-08-18T10:53:39.505Z,99955.96
2022-08-18T10:56:26.770Z,99956.45
2022-08-18T10:58:57.722Z,99953.86
2022-08-18T11:01:39.848Z,99945.55
2022-08-18T11:04:33.139Z,99941.65
2022-08-18T11:07:10.890Z,99945.98
2022-08-18T11:09:42.208Z,99946.45
2022-08-18T11:12:52.130Z,99945.89
2022-08-18T11:15:59.605Z,99940.14
2022-08-18T11:18:42.596Z,99935.66
2022-08-18T11:21:43.829Z,99929.35
2022-08-18T11:24:29.209Z,99927.44
2022-08-18T11:26:59.786Z,99927.27
2022-08-18T11:29:32.423Z,99922.64
2022-08-18T11:32:25.371Z,99915.25
2022-08-18T11:34:59.770Z,99910.02
2022-08-18T11:37:49.606Z,99913.79
2022-08-18T11:43:41.333Z,99910.73
2022-08-18T11:46:24.962Z,99904.50
2022-08-18T11:48:56.459Z,99900.60
2022-08-18T11:51:32.131Z,99895.45
2022-08-18T11:54:17.869Z,99894.55
2022-08-18T11:56:47.640Z,99893.15
2022-08-18T11:59:52.842Z,99890.48
2022-08-18T12:02:23.712Z,99892.77
2022-08-18T12:05:03.350Z,99894.14
2022-08-18T12:07:37.261Z,99894.42
2022-08-18T12:10:28.681Z,99889.85
2022-08-18T12:13:00.737Z,99887.17
2022-08-18T12:15:43.783Z,99881.98
2022-08-18T12:18:25.911Z,99875.87
2022-08-18T12:21:03.042Z,99876.50
2022-08-18T12:23:39.192Z,99873.34
2022-08-18T12:26:26.952Z,99870.63
2022-08-18T12:29:04.649Z,99870.83
2022-08-18T12:34:27.321Z,99866.11
2022-08-18T12:36:58.238Z,99850.27
2022-08-18T12:39:25.982Z,99844.11
2022-08-18T12:41:53.860Z,99844.38
2022-08-18T12:44:21.726Z,99836.11
2022-08-18T12:46:49.570Z,99838.60
2022-08-18T12:49:20.856Z,99841.73
2022-08-18T12:54:36.670Z,99830.21
2022-08-18T13:00:16.920Z,99819.17
2022-08-18T13:02:46.613Z,99813.52
2022-08-18T13:05:14.256Z,99811.02
2022-08-18T13:07:43.828Z,99813.03
2022-08-18T13:10:35.455Z,99821.73
2022-08-18T13:12:59.924Z,99818.20
2022-08-18T13:15:30.400Z,99805.86
2022-08-18T13:17:57.972Z,99802.40
2022-08-18T13:20:25.615Z,99791.64
2022-08-18T13:22:53.493Z,99795.48
2022-08-18T13:25:32.713Z,99791.36
2022-08-18T13:28:07.056Z,99791.75
2022-08-18T13:30:35.394Z,99785.31
2022-08-18T13:33:33.845Z,99775.08
2022-08-18T13:35:54.466Z,99768.92
2022-08-18T13:38:25.828Z,99767.93
2022-08-18T13:40:59.458Z,99766.52
2022-08-18T13:43:31.966Z,99762.37
2022-08-18T13:45:59.870Z,99760.75
2022-08-18T13:48:30.398Z,99756.45
2022-08-18T13:50:59.926Z,99749.17
2022-08-18T13:53:31.556Z,99745.73
2022-08-18T13:55:59.874Z,99745.64
2022-08-18T13:58:29.059Z,99745.66
2022-08-18T14:01:22.634Z,99746.09
2022-08-18T14:03:48.113Z,99752.19
2022-08-18T14:06:22.644Z,99751.66
2022-08-18T14:08:53.152Z,99745.61
2022-08-18T14:11:32.652Z,99743.53
2022-08-18T14:14:02.153Z,99747.48
2022-08-18T14:16:31.276Z,99752.40
2022-08-18T14:19:19.135Z,99752.59
2022-08-18T14:22:11.437Z,99752.86
2022-08-18T14:24:57.236Z,99750.33
2022-08-18T14:27:35.218Z,99752.55
2022-08-18T14:30:06.644Z,99752.54
2022-08-18T14:32:36.207Z,99749.59
2022-08-18T14:35:33.386Z,99751.32
2022-08-18T14:37:54.949Z,99747.94
2022-08-18T14:40:24.855Z,99752.40
2022-08-18T14:42:54.443Z,99758.17
2022-08-18T14:45:27.992Z,99761.30
2022-08-18T14:48:07.301Z,99762.48
2022-08-18T14:50:35.933Z,99761.19
2022-08-18T14:53:06.110Z,99765.52
2022-08-18T14:55:34.394Z,99767.36
2022-08-18T14:58:07.145Z,99764.67
2022-08-18T15:00:49.745Z,99764.97
2022-08-18T15:03:30.982Z,99764.77
2022-08-18T15:06:04.478Z,99756.36
2022-08-18T15:08:37.334Z,99752.09
2022-08-18T15:11:11.633Z,99751.89
2022-08-18T15:13:43.404Z,99746.45
2022-08-18T15:16:14.953Z,99744.26
2022-08-18T15:18:44.763Z,99741.60
2022-08-18T15:21:35.226Z,99737.19
2022-08-18T15:24:23.603Z,99732.20
2022-08-18T15:26:57.556Z,99733.20
2022-08-18T15:29:28.969Z,99735.72
2022-08-18T15:32:05.898Z,99736.73
2022-08-18T15:34:47.115Z,99735.95
2022-08-18T15:37:24.442Z,99730.27
2022-08-18T15:40:30.181Z,99726.86
2022-08-18T15:43:03.245Z,99723.68
2022-08-18T15:45:37.613Z,99723.89
2022-08-18T15:48:12.500Z,99725.84
2022-08-18T15:50:40.929Z,99719.84
2022-08-18T15:53:11.412Z,99720.54
2022-08-18T15:55:40.698Z,99728.61
2022-08-18T15:58:12.311Z,99726.95
2022-08-18T16:00:45.718Z,99729.71
2022-08-18T16:03:16.020Z,99726.67
2022-08-18T16:05:52.942Z,99722.17
2022-08-18T16:08:23.452Z,99714.60
2022-08-18T16:10:52.320Z,99712.28
2022-08-18T16:13:20.482Z,99711.25
2022-08-18T16:15:50.130Z,99708.13
2022-08-18T16:18:20.942Z,99702.63
2022-08-18T16:20:50.709Z,99699.33
2022-08-18T16:23:20.694Z,99696.16
2022-08-18T16:25:48.401Z,99699.18
2022-08-18T16:28:16.043Z,99692.84
2022-08-18T16:30:43.684Z,99692.86
2022-08-18T16:33:11.285Z,99695.59
2022-08-18T16:35:38.968Z,99706.06
2022-08-18T16:38:10.950Z,99711.13
2022-08-18T16:40:40.254Z,99704.37
2022-08-18T16:43:08.842Z,99699.21
2022-08-18T16:45:37.373Z,99703.13
2022-08-18T16:48:08.185Z,99706.37
2022-08-18T16:50:42.377Z,99705.48
2022-08-18T16:53:10.059Z,99704.77
2022-08-18T16:55:37.642Z,99706.25
2022-08-18T16:58:21.544Z,99713.48
2022-08-18T17:01:05.358Z,99715.41
2022-08-18T17:03:48.919Z,99719.48
2022-08-18T17:06:18.971Z,99715.16
2022-08-18T17:08:47.109Z,99713.34
2022-08-18T17:11:19.210Z,99712.73
2022-08-18T17:13:48.904Z,99714.86
2022-08-18T17:16:19.525Z,99716.33
2022-08-18T17:18:48.155Z,99718.36
2022-08-18T17:21:19.517Z,99726.92
2022-08-18T17:23:48.182Z,99726.07
2022-08-18T17:26:41.216Z,99724.75
2022-08-18T17:29:12.300Z,99727.46
2022-08-18T17:31:45.163Z,99733.00
2022-08-18T17:34:14.883Z,99729.02
2022-08-18T17:36:52.851Z,99729.86
2022-08-18T17:39:31.127Z,99729.05
2022-08-18T17:42:14.315Z,99729.31
2022-08-18T17:44:52.339Z,99731.77
2022-08-18T17:47:53.437Z,99735.19
2022-08-18T17:50:48.886Z,99733.66
2022-08-18T17:53:17.023Z,99728.44
2022-08-18T17:55:50.522Z,99726.77
2022-08-18T17:58:28.548Z,99728.48
2022-08-18T18:00:57.217Z,99726.66
2022-08-18T18:03:28.342Z,99726.27
2022-08-18T18:08:53.412Z,99733.45
2022-08-18T18:11:41.899Z,99736.95
2022-08-18T18:14:25.912Z,99740.02
2022-08-18T18:17:11.783Z,99743.38
2022-08-18T18:19:44.472Z,99747.58
2022-08-18T18:22:28.333Z,99757.50
2022-08-18T18:25:04.435Z,99762.45
2022-08-18T18:27:41.864Z,99766.92
2022-08-18T18:30:29.725Z,99763.79
2022-08-18T18:33:02.657Z,99765.77
2022-08-18T18:35:53.296Z,99764.29
2022-08-18T18:38:48.834Z,99765.46
2022-08-18T18:41:28.020Z,99762.88
2022-08-18T18:44:06.302Z,99764.02
2022-08-18T18:46:41.287Z,99766.42
2022-08-18T18:49:24.738Z,99766.73
2022-08-18T18:52:16.262Z,99772.73
2022-08-18T18:55:09.165Z,99780.95
2022-08-18T18:57:52.052Z,99778.15
2022-08-18T19:00:30.135Z,99784.08
2022-08-18T19:03:13.698Z,99785.33
2022-08-18T19:05:57.187Z,99787.95
2022-08-18T19:08:33.839Z,99781.04
2022-08-18T19:11:17.515Z,99777.27
2022-08-18T19:13:54.173Z,99777.48
2022-08-18T19:16:33.639Z,99780.81
2022-08-18T19:19:35.527Z,99787.76
2022-08-18T19:22:10.994Z,99796.59
2022-08-18T19:24:49.964Z,99799.30
2022-08-18T19:27:25.290Z,99802.15
2022-08-18T19:29:58.582Z,99799.10
2022-08-18T19:32:34.250Z,99809.88
2022-08-18T19:35:04.378Z,99816.06
2022-08-18T19:38:01.961Z,99814.56
2022-08-18T19:40:36.441Z,99814.35
2022-08-18T19:43:12.539Z,99809.12
2022-08-18T19:45:47.938Z,99808.94
2022-08-18T19:48:29.664Z,99806.71
2022-08-18T19:51:12.188Z,99804.73
2022-08-18T19:53:55.733Z,99804.22
2022-08-18T19:56:42.175Z,99807.64
2022-08-18T19:59:25.640Z,99811.15
2022-08-18T20:02:10.322Z,99814.02
2022-08-18T20:05:09.873Z,99811.20
2022-08-18T20:07:55.535Z,99811.61
2022-08-18T20:10:34.468Z,99811.60
2022-08-18T20:13:33.114Z,99810.05
2022-08-18T20:16:05.372Z,99809.58
2022-08-18T20:18:36.409Z,99810.84
2022-08-18T20:21:20.178Z,99809.31
2022-08-18T20:24:02.374Z,99811.55
2022-08-18T20:26:39.198Z,99809.66
2022-08-18T20:29:12.117Z,99805.59
2022-08-18T20:32:00.283Z,99804.64
2022-08-18T20:34:31.000Z,99805.84
2022-08-18T20:37:01.384Z,99803.95
2022-08-18T20:39:34.594Z,99805.98
2022-08-18T20:42:04.944Z,99804.02
2022-08-18T20:44:36.300Z,99803.84
2022-08-18T20:47:19.808Z,99797.35
2022-08-18T20:50:04.387Z,99793.88
2022-08-18T20:52:45.470Z,99798.49
2022-08-18T20:55:27.812Z,99796.43
2022-08-18T20:58:18.180Z,99796.14
2022-08-18T21:00:51.150Z,99796.46
2022-08-18T21:03:24.875Z,99804.05
2022-08-18T21:05:58.504Z,99799.96
2022-08-18T21:08:29.210Z,99799.23
2022-08-18T21:11:01.395Z,99800.27
2022-08-18T21:13:40.568Z,99796.40
2022-08-18T21:16:14.303Z,99795.34
2022-08-18T21:19:24.972Z,99799.52
2022-08-18T21:21:55.243Z,99802.44
2022-08-18T21:24:42.322Z,99799.84
2022-08-18T21:27:09.915Z,99801.01
2022-08-18T21:29:47.361Z,99792.05
2022-08-18T21:32:21.914Z,99795.14
2022-08-18T21:34:51.016Z,99796.21
2022-08-18T21:37:19.965Z,99797.48
2022-08-18T21:39:56.850Z,99802.61
2022-08-18T21:42:28.980Z,99802.98
2022-08-18T21:45:00.519Z,99798.89
2022-08-18T21:47:32.269Z,99800.50
2022-08-18T21:50:22.991Z,99801.20
2022-08-18T21:53:05.516Z,99799.95
2022-08-18T21:55:42.955Z,99797.61
2022-08-18T21:58:33.865Z,99797.76
2022-08-18T22:01:21.683Z,99797.20
2022-08-18T22:04:02.708Z,99798.77
2022-08-18T22:06:33.557Z,99802.20
2022-08-18T22:09:24.582Z,99799.52
2022-08-18T22:12:40.111Z,99795.27
2022-08-18T22:15:25.535Z,99792.27
2022-08-18T22:17:59.117Z,99794.14
2022-08-18T22:20:42.748Z,99789.48
2022-08-18T22:23:29.163Z,99787.04
2022-08-18T22:26:17.807Z,99787.35
2022-08-18T22:29:04.742Z,99788.55
2022-08-18T22:31:37.788Z,99789.26
2022-08-18T22:34:09.643Z,99791.57
2022-08-18T22:36:40.969Z,99787.05
2022-08-18T22:39:11.859Z,99781.55
2022-08-18T22:41:41.152Z,99785.86
2022-08-18T22:44:09.949Z,99788.76
2022-08-18T22:46:37.676Z,99791.72
2022-08-18T22:49:05.352Z,99790.54
2022-08-18T22:51:36.182Z,99792.21
2022-08-18T22:54:08.180Z,99788.30
2022-08-18T22:56:38.188Z,99787.80
2022-08-18T22:59:14.062Z,99781.38
2022-08-18T23:01:48.060Z,99781.35
2022-08-18T23:04:17.514Z,99783.61
2022-08-18T23:06:51.710Z,99785.29
2022-08-18T23:09:25.842Z,99786.70
2022-08-18T23:11:55.766Z,99786.27
2022-08-18T23:14:24.198Z,99791.61
2022-08-18T23:16:52.370Z,99790.98
2022-08-18T23:19:21.566Z,99789.86
2022-08-18T23:21:49.853Z,99789.64
2022-08-18T23:24:19.590Z,99793.16
2022-08-18T23:26:49.165Z,99794.11
2022-08-18T23:29:18.775Z,99794.72
2022-08-18T23:31:48.380Z,99792.23
2022-08-18T23:34:18.449Z,99797.66
2022-08-18T23:36:52.699Z,99794.82
2022-08-18T23:39:20.311Z,99802.41
2022-08-18T23:41:48.253Z,99797.73
2022-08-18T23:44:16.632Z,99794.55
2022-08-18T23:46:44.646Z,99795.61
2022-08-18T23:49:14.755Z,99796.64
2022-08-18T23:51:46.251Z,99797.32
2022-08-18T23:54:21.432Z,99792.30
2022-08-18T23:56:49.282Z,99793.48
2022-08-18T23:59:19.044Z,99797.70
